sensor_id;sensor_type;location;lat;lon;timestamp;temperature;humidity
19000;DHT22;9633;50.980;13.850;2024-01-07T00:01:24;0.30;99.90
19000;DHT22;9633;50.980;13.850;2024-01-07T00:02:57;0.30;99.90
19000;DHT22;9633;50.980;13.850;2024-01-07T00:04:30;0.30;99.90
19000;DHT22;9633;50.980;13.850;2024-01-07T00:06:06;0.30;99.90
19000;DHT22;9633;50.980;13.850;2024-01-07T00:07:39;0.30;99.90
19000;DHT22;9633;50.980;13.850;2024-01-07T00:09:13;0.30;99.90
19000;DHT22;9633;50.980;13.850;2024-01-07T00:10:45;0.30;99.90
19000;DHT22;9633;50.980;13.850;2024-01-07T00:12:19;0.30;99.90
19000;DHT22;9633;50.980;13.850;2024-01-07T00:13:51;0.30;99.90
19000;DHT22;9633;50.980;13.850;2024-01-07T00:15:25;0.30;99.90
19000;DHT22;9633;50.980;13.850;2024-01-07T00:16:59;0.20;99.90
19000;DHT22;9633;50.980;13.850;2024-01-07T00:18:32;0.20;99.90
19000;DHT22;9633;50.980;13.850;2024-01-07T00:20:06;0.20;99.90
19000;DHT22;9633;50.980;13.850;2024-01-07T00:21:40;0.20;99.90
19000;DHT22;9633;50.980;13.850;2024-01-07T00:23:14;0.20;99.90
19000;DHT22;9633;50.980;13.850;2024-01-07T00:24:47;0.20;99.90
19000;DHT22;9633;50.980;13.850;2024-01-07T00:26:20;0.20;99.90
19000;DHT22;9633;50.980;13.850;2024-01-07T00:27:53;0.30;99.90
19000;DHT22;9633;50.980;13.850;2024-01-07T00:29:27;0.30;99.90
19000;DHT22;9633;50.980;13.850;2024-01-07T00:31:00;0.30;99.90
19000;DHT22;9633;50.980;13.850;2024-01-07T00:32:34;0.20;99.90
19000;DHT22;9633;50.980;13.850;2024-01-07T00:34:07;0.20;99.90
19000;DHT22;9633;50.980;13.850;2024-01-07T00:35:40;0.20;99.90
19000;DHT22;9633;50.980;13.850;2024-01-07T00:37:13;0.00;99.90
19000;DHT22;9633;50.980;13.850;2024-01-07T00:38:47;0.10;99.90
19000;DHT22;9633;50.980;13.850;2024-01-07T00:40:20;0.10;99.90
19000;DHT22;9633;50.980;13.850;2024-01-07T00:41:53;0.10;99.90
19000;DHT22;9633;50.980;13.850;2024-01-07T00:43:26;0.10;99.90
19000;DHT22;9633;50.980;13.850;2024-01-07T00:44:59;0.00;99.90
19000;DHT22;9633;50.980;13.850;2024-01-07T00:46:32;-0.10;99.90
19000;DHT22;9633;50.980;13.850;2024-01-07T00:48:05;0.00;99.90
19000;DHT22;9633;50.980;13.850;2024-01-07T00:49:39;0.00;99.90
19000;DHT22;9633;50.980;13.850;2024-01-07T00:51:13;0.00;99.90
19000;DHT22;9633;50.980;13.850;2024-01-07T00:52:46;0.00;99.90
19000;DHT22;9633;50.980;13.850;2024-01-07T00:54:20;-0.10;99.90
19000;DHT22;9633;50.980;13.850;2024-01-07T00:55:54;-0.10;99.90
19000;DHT22;9633;50.980;13.850;2024-01-07T00:57:26;0.00;99.90
19000;DHT22;9633;50.980;13.850;2024-01-07T00:58:59;0.10;99.90
19000;DHT22;9633;50.980;13.850;2024-01-07T01:00:32;0.10;99.90
19000;DHT22;9633;50.980;13.850;2024-01-07T01:02:05;0.00;99.90
19000;DHT22;9633;50.980;13.850;2024-01-07T01:03:38;0.00;99.90
19000;DHT22;9633;50.980;13.850;2024-01-07T01:05:11;0.10;99.90
19000;DHT22;9633;50.980;13.850;2024-01-07T01:06:44;0.00;99.90
19000;DHT22;9633;50.980;13.850;2024-01-07T01:08:18;0.00;99.90
19000;DHT22;9633;50.980;13.850;2024-01-07T01:09:53;0.10;99.90
19000;DHT22;9633;50.980;13.850;2024-01-07T01:11:26;0.10;99.90
19000;DHT22;9633;50.980;13.850;2024-01-07T01:13:00;0.10;99.90
19000;DHT22;9633;50.980;13.850;2024-01-07T01:14:32;0.10;99.90
19000;DHT22;9633;50.980;13.850;2024-01-07T01:16:06;0.10;99.90
19000;DHT22;9633;50.980;13.850;2024-01-07T01:17:38;0.00;99.90
19000;DHT22;9633;50.980;13.850;2024-01-07T01:19:12;-0.10;99.90
19000;DHT22;9633;50.980;13.850;2024-01-07T01:20:44;0.00;99.90
19000;DHT22;9633;50.980;13.850;2024-01-07T01:22:17;-0.10;99.90
19000;DHT22;9633;50.980;13.850;2024-01-07T01:23:50;-0.10;99.90
19000;DHT22;9633;50.980;13.850;2024-01-07T01:25:25;-0.20;99.90
19000;DHT22;9633;50.980;13.850;2024-01-07T01:26:58;-0.20;99.90
19000;DHT22;9633;50.980;13.850;2024-01-07T01:28:31;-0.20;99.90
19000;DHT22;9633;50.980;13.850;2024-01-07T01:30:04;-0.20;99.90
19000;DHT22;9633;50.980;13.850;2024-01-07T01:31:38;-0.30;99.90
19000;DHT22;9633;50.980;13.850;2024-01-07T01:33:10;-0.30;99.90
19000;DHT22;9633;50.980;13.850;2024-01-07T01:34:44;-0.30;99.90
19000;DHT22;9633;50.980;13.850;2024-01-07T01:36:16;-0.30;99.90
19000;DHT22;9633;50.980;13.850;2024-01-07T01:37:50;-0.30;99.90
19000;DHT22;9633;50.980;13.850;2024-01-07T01:39:22;-0.30;99.90
19000;DHT22;9633;50.980;13.850;2024-01-07T01:40:57;-0.20;99.90
19000;DHT22;9633;50.980;13.850;2024-01-07T01:42:29;-0.30;99.90
19000;DHT22;9633;50.980;13.850;2024-01-07T01:44:04;-0.30;99.90
19000;DHT22;9633;50.980;13.850;2024-01-07T01:45:36;-0.40;99.90
19000;DHT22;9633;50.980;13.850;2024-01-07T01:47:10;-0.30;99.90
19000;DHT22;9633;50.980;13.850;2024-01-07T01:48:43;-0.10;99.90
19000;DHT22;9633;50.980;13.850;2024-01-07T01:50:17;-0.20;99.90
19000;DHT22;9633;50.980;13.850;2024-01-07T01:51:50;-0.20;99.90
19000;DHT22;9633;50.980;13.850;2024-01-07T01:53:25;-0.20;99.90
19000;DHT22;9633;50.980;13.850;2024-01-07T01:54:58;-0.30;99.90
19000;DHT22;9633;50.980;13.850;2024-01-07T01:56:34;-0.20;99.90
19000;DHT22;9633;50.980;13.850;2024-01-07T01:58:09;-0.20;99.90
19000;DHT22;9633;50.980;13.850;2024-01-07T01:59:42;-0.20;99.90
19000;DHT22;9633;50.980;13.850;2024-01-07T02:01:16;-0.10;99.90
19000;DHT22;9633;50.980;13.850;2024-01-07T02:02:49;-0.20;99.90
19000;DHT22;9633;50.980;13.850;2024-01-07T02:04:23;-0.20;99.90
19000;DHT22;9633;50.980;13.850;2024-01-07T02:05:55;-0.20;99.90
19000;DHT22;9633;50.980;13.850;2024-01-07T02:07:30;-0.10;99.90
19000;DHT22;9633;50.980;13.850;2024-01-07T02:09:02;-0.20;99.90
19000;DHT22;9633;50.980;13.850;2024-01-07T02:10:36;-0.20;99.90
19000;DHT22;9633;50.980;13.850;2024-01-07T02:12:15;-0.20;99.90
19000;DHT22;9633;50.980;13.850;2024-01-07T02:13:48;-0.20;99.90
19000;DHT22;9633;50.980;13.850;2024-01-07T02:15:20;-0.30;99.90
19000;DHT22;9633;50.980;13.850;2024-01-07T02:16:54;-0.30;99.90
19000;DHT22;9633;50.980;13.850;2024-01-07T02:18:27;-0.30;99.90
19000;DHT22;9633;50.980;13.850;2024-01-07T02:20:00;-0.30;99.90
19000;DHT22;9633;50.980;13.850;2024-01-07T02:21:33;-0.30;99.90
19000;DHT22;9633;50.980;13.850;2024-01-07T02:23:06;-0.30;99.90
19000;DHT22;9633;50.980;13.850;2024-01-07T02:24:40;-0.30;99.90
19000;DHT22;9633;50.980;13.850;2024-01-07T02:26:13;-0.20;99.90
19000;DHT22;9633;50.980;13.850;2024-01-07T02:27:46;-0.20;99.90
19000;DHT22;9633;50.980;13.850;2024-01-07T02:29:19;-0.10;99.90
19000;DHT22;9633;50.980;13.850;2024-01-07T02:30:52;-0.10;99.90
19000;DHT22;9633;50.980;13.850;2024-01-07T02:32:25;-0.10;99.90
19000;DHT22;9633;50.980;13.850;2024-01-07T02:33:58;-0.10;99.90
19000;DHT22;9633;50.980;13.850;2024-01-07T02:35:32;-0.30;99.90
19000;DHT22;9633;50.980;13.850;2024-01-07T02:37:04;-0.20;99.90
19000;DHT22;9633;50.980;13.850;2024-01-07T02:38:38;-0.20;99.90
19000;DHT22;9633;50.980;13.850;2024-01-07T02:40:15;-0.30;99.90
19000;DHT22;9633;50.980;13.850;2024-01-07T02:41:49;-0.30;99.90
19000;DHT22;9633;50.980;13.850;2024-01-07T02:43:22;-0.30;99.90
19000;DHT22;9633;50.980;13.850;2024-01-07T02:44:55;-0.40;99.90
19000;DHT22;9633;50.980;13.850;2024-01-07T02:46:27;-0.40;99.90
19000;DHT22;9633;50.980;13.850;2024-01-07T02:48:01;-0.30;99.90
19000;DHT22;9633;50.980;13.850;2024-01-07T02:49:33;-0.40;99.90
19000;DHT22;9633;50.980;13.850;2024-01-07T02:51:08;-0.40;99.90
19000;DHT22;9633;50.980;13.850;2024-01-07T02:52:40;-0.40;99.90
19000;DHT22;9633;50.980;13.850;2024-01-07T02:54:14;-0.40;99.90
19000;DHT22;9633;50.980;13.850;2024-01-07T02:55:47;-0.40;99.90
19000;DHT22;9633;50.980;13.850;2024-01-07T02:57:21;-0.40;99.90
19000;DHT22;9633;50.980;13.850;2024-01-07T02:58:54;-0.50;99.90
19000;DHT22;9633;50.980;13.850;2024-01-07T03:00:28;-0.50;99.90
19000;DHT22;9633;50.980;13.850;2024-01-07T03:02:00;-0.40;99.90
19000;DHT22;9633;50.980;13.850;2024-01-07T03:03:33;-0.40;99.90
19000;DHT22;9633;50.980;13.850;2024-01-07T03:05:06;-0.50;99.90
19000;DHT22;9633;50.980;13.850;2024-01-07T03:06:40;-0.60;99.90
19000;DHT22;9633;50.980;13.850;2024-01-07T03:08:12;-0.50;99.90
19000;DHT22;9633;50.980;13.850;2024-01-07T03:09:47;-0.50;99.90
19000;DHT22;9633;50.980;13.850;2024-01-07T03:11:21;-0.50;99.90
19000;DHT22;9633;50.980;13.850;2024-01-07T03:12:55;-0.50;99.90
19000;DHT22;9633;50.980;13.850;2024-01-07T03:14:28;-0.50;99.90
19000;DHT22;9633;50.980;13.850;2024-01-07T03:16:01;-0.50;99.90
19000;DHT22;9633;50.980;13.850;2024-01-07T03:17:34;-0.50;99.90
19000;DHT22;9633;50.980;13.850;2024-01-07T03:19:08;-0.50;99.90
19000;DHT22;9633;50.980;13.850;2024-01-07T03:20:41;-0.50;99.90
19000;DHT22;9633;50.980;13.850;2024-01-07T03:22:14;-0.50;99.90
19000;DHT22;9633;50.980;13.850;2024-01-07T03:23:48;-0.50;99.90
19000;DHT22;9633;50.980;13.850;2024-01-07T03:25:22;-0.50;99.90
19000;DHT22;9633;50.980;13.850;2024-01-07T03:26:56;-0.50;99.90
19000;DHT22;9633;50.980;13.850;2024-01-07T03:28:29;-0.60;99.90
19000;DHT22;9633;50.980;13.850;2024-01-07T03:30:02;-0.60;99.90
19000;DHT22;9633;50.980;13.850;2024-01-07T03:31:36;-0.60;99.90
19000;DHT22;9633;50.980;13.850;2024-01-07T03:33:08;-0.60;99.90
19000;DHT22;9633;50.980;13.850;2024-01-07T03:34:42;-0.50;99.90
19000;DHT22;9633;50.980;13.850;2024-01-07T03:36:14;-0.50;99.90
19000;DHT22;9633;50.980;13.850;2024-01-07T03:37:48;-0.50;99.90
19000;DHT22;9633;50.980;13.850;2024-01-07T03:39:20;-0.50;99.70
19000;DHT22;9633;50.980;13.850;2024-01-07T03:40:54;-0.50;99.90
19000;DHT22;9633;50.980;13.850;2024-01-07T03:42:27;-0.60;99.90
19000;DHT22;9633;50.980;13.850;2024-01-07T03:44:01;-0.60;99.90
19000;DHT22;9633;50.980;13.850;2024-01-07T03:45:34;-0.50;99.90
19000;DHT22;9633;50.980;13.850;2024-01-07T03:47:08;-0.50;99.90
19000;DHT22;9633;50.980;13.850;2024-01-07T03:48:41;-0.60;96.50
19000;DHT22;9633;50.980;13.850;2024-01-07T03:50:15;-0.40;98.20
19000;DHT22;9633;50.980;13.850;2024-01-07T03:51:48;-0.50;99.90
19000;DHT22;9633;50.980;13.850;2024-01-07T03:53:21;-0.50;99.40
19000;DHT22;9633;50.980;13.850;2024-01-07T03:54:54;-0.50;99.90
19000;DHT22;9633;50.980;13.850;2024-01-07T03:56:27;-0.50;99.90
19000;DHT22;9633;50.980;13.850;2024-01-07T03:58:01;-0.50;99.90
19000;DHT22;9633;50.980;13.850;2024-01-07T03:59:35;-0.50;99.90
19000;DHT22;9633;50.980;13.850;2024-01-07T04:01:08;-0.50;99.90
19000;DHT22;9633;50.980;13.850;2024-01-07T04:02:42;-0.50;99.90
19000;DHT22;9633;50.980;13.850;2024-01-07T04:04:15;-0.40;99.90
19000;DHT22;9633;50.980;13.850;2024-01-07T04:05:48;-0.60;99.90
19000;DHT22;9633;50.980;13.850;2024-01-07T04:07:21;-0.60;99.90
19000;DHT22;9633;50.980;13.850;2024-01-07T04:08:53;-0.60;99.90
19000;DHT22;9633;50.980;13.850;2024-01-07T04:10:27;-0.70;99.90
19000;DHT22;9633;50.980;13.850;2024-01-07T04:11:59;-0.70;99.90
19000;DHT22;9633;50.980;13.850;2024-01-07T04:13:34;-0.70;99.90
19000;DHT22;9633;50.980;13.850;2024-01-07T04:15:07;-0.60;99.90
19000;DHT22;9633;50.980;13.850;2024-01-07T04:16:41;-0.60;99.90
19000;DHT22;9633;50.980;13.850;2024-01-07T04:18:13;-0.60;99.90
19000;DHT22;9633;50.980;13.850;2024-01-07T04:19:47;-0.60;99.90
19000;DHT22;9633;50.980;13.850;2024-01-07T04:21:19;-0.50;99.90
19000;DHT22;9633;50.980;13.850;2024-01-07T04:22:53;-0.50;99.90
19000;DHT22;9633;50.980;13.850;2024-01-07T04:24:25;-0.60;99.90
19000;DHT22;9633;50.980;13.850;2024-01-07T04:25:59;-0.70;99.90
19000;DHT22;9633;50.980;13.850;2024-01-07T04:27:31;-0.60;99.90
19000;DHT22;9633;50.980;13.850;2024-01-07T04:29:06;-0.60;99.90
19000;DHT22;9633;50.980;13.850;2024-01-07T04:30:38;-0.70;99.90
19000;DHT22;9633;50.980;13.850;2024-01-07T04:32:12;-0.70;99.90
19000;DHT22;9633;50.980;13.850;2024-01-07T04:33:44;-0.60;99.90
19000;DHT22;9633;50.980;13.850;2024-01-07T04:35:18;-0.50;99.30
19000;DHT22;9633;50.980;13.850;2024-01-07T04:36:50;-0.60;99.70
19000;DHT22;9633;50.980;13.850;2024-01-07T04:38:24;-0.60;99.90
19000;DHT22;9633;50.980;13.850;2024-01-07T04:39:56;-0.60;99.90
19000;DHT22;9633;50.980;13.850;2024-01-07T04:41:30;-0.60;99.90
19000;DHT22;9633;50.980;13.850;2024-01-07T04:43:03;-0.50;99.90
19000;DHT22;9633;50.980;13.850;2024-01-07T04:44:37;-0.60;99.90
19000;DHT22;9633;50.980;13.850;2024-01-07T04:46:11;-0.70;99.90
19000;DHT22;9633;50.980;13.850;2024-01-07T04:47:43;-0.70;95.60
19000;DHT22;9633;50.980;13.850;2024-01-07T04:49:17;-0.70;95.40
19000;DHT22;9633;50.980;13.850;2024-01-07T04:50:49;-0.60;99.40
19000;DHT22;9633;50.980;13.850;2024-01-07T04:52:23;-0.70;92.40
19000;DHT22;9633;50.980;13.850;2024-01-07T04:53:56;-0.80;95.30
19000;DHT22;9633;50.980;13.850;2024-01-07T04:55:30;-0.80;94.10
19000;DHT22;9633;50.980;13.850;2024-01-07T04:57:02;-0.80;99.10
19000;DHT22;9633;50.980;13.850;2024-01-07T04:58:35;-0.80;95.60
19000;DHT22;9633;50.980;13.850;2024-01-07T05:00:12;-0.70;96.20
19000;DHT22;9633;50.980;13.850;2024-01-07T05:01:44;-0.70;94.10
19000;DHT22;9633;50.980;13.850;2024-01-07T05:03:18;-0.70;88.70
19000;DHT22;9633;50.980;13.850;2024-01-07T05:04:50;-0.60;84.30
19000;DHT22;9633;50.980;13.850;2024-01-07T05:06:24;-0.70;76.70
19000;DHT22;9633;50.980;13.850;2024-01-07T05:07:56;-0.80;93.30
19000;DHT22;9633;50.980;13.850;2024-01-07T05:09:32;-0.80;99.90
19000;DHT22;9633;50.980;13.850;2024-01-07T05:11:05;-0.80;93.30
19000;DHT22;9633;50.980;13.850;2024-01-07T05:12:39;-0.80;97.30
19000;DHT22;9633;50.980;13.850;2024-01-07T05:14:11;-0.80;96.50
19000;DHT22;9633;50.980;13.850;2024-01-07T05:15:46;-0.80;98.10
19000;DHT22;9633;50.980;13.850;2024-01-07T05:17:25;-0.70;94.50
19000;DHT22;9633;50.980;13.850;2024-01-07T05:18:59;-0.80;91.40
19000;DHT22;9633;50.980;13.850;2024-01-07T05:20:31;-0.80;96.40
19000;DHT22;9633;50.980;13.850;2024-01-07T05:22:04;-0.90;94.80
19000;DHT22;9633;50.980;13.850;2024-01-07T05:23:39;-0.90;96.90
19000;DHT22;9633;50.980;13.850;2024-01-07T05:25:14;-0.90;99.90
19000;DHT22;9633;50.980;13.850;2024-01-07T05:26:46;-0.80;93.30
19000;DHT22;9633;50.980;13.850;2024-01-07T05:28:20;-0.80;92.30
19000;DHT22;9633;50.980;13.850;2024-01-07T05:29:53;-0.80;92.90
19000;DHT22;9633;50.980;13.850;2024-01-07T05:31:28;-0.80;92.80
19000;DHT22;9633;50.980;13.850;2024-01-07T05:33:01;-0.80;96.70
19000;DHT22;9633;50.980;13.850;2024-01-07T05:34:35;-0.80;98.60
19000;DHT22;9633;50.980;13.850;2024-01-07T05:36:07;-0.70;96.90
19000;DHT22;9633;50.980;13.850;2024-01-07T05:37:40;-0.80;96.40
19000;DHT22;9633;50.980;13.850;2024-01-07T05:39:13;-0.70;99.20
19000;DHT22;9633;50.980;13.850;2024-01-07T05:40:46;-0.70;99.00
19000;DHT22;9633;50.980;13.850;2024-01-07T05:42:19;-0.80;99.90
19000;DHT22;9633;50.980;13.850;2024-01-07T05:43:52;-0.90;99.90
19000;DHT22;9633;50.980;13.850;2024-01-07T05:45:24;-0.80;99.90
19000;DHT22;9633;50.980;13.850;2024-01-07T05:46:59;-0.80;99.90
19000;DHT22;9633;50.980;13.850;2024-01-07T05:48:41;-0.80;99.90
19000;DHT22;9633;50.980;13.850;2024-01-07T05:50:15;-0.80;99.90
19000;DHT22;9633;50.980;13.850;2024-01-07T05:51:50;-0.90;99.90
19000;DHT22;9633;50.980;13.850;2024-01-07T05:53:24;-0.90;99.90
19000;DHT22;9633;50.980;13.850;2024-01-07T05:54:56;-1.00;99.90
19000;DHT22;9633;50.980;13.850;2024-01-07T05:56:33;-1.00;99.90
19000;DHT22;9633;50.980;13.850;2024-01-07T05:58:10;-1.00;99.90
19000;DHT22;9633;50.980;13.850;2024-01-07T05:59:43;-0.90;99.90
19000;DHT22;9633;50.980;13.850;2024-01-07T06:01:18;-1.00;99.90
19000;DHT22;9633;50.980;13.850;2024-01-07T06:02:53;-1.00;99.90
19000;DHT22;9633;50.980;13.850;2024-01-07T06:04:26;-1.00;99.90
19000;DHT22;9633;50.980;13.850;2024-01-07T06:05:59;-1.10;99.90
19000;DHT22;9633;50.980;13.850;2024-01-07T06:07:32;-1.10;99.90
19000;DHT22;9633;50.980;13.850;2024-01-07T06:09:05;-1.10;99.90
19000;DHT22;9633;50.980;13.850;2024-01-07T06:10:38;-0.90;99.90
19000;DHT22;9633;50.980;13.850;2024-01-07T06:12:12;-1.00;99.90
19000;DHT22;9633;50.980;13.850;2024-01-07T06:13:44;-1.00;99.90
19000;DHT22;9633;50.980;13.850;2024-01-07T06:15:18;-1.00;99.90
19000;DHT22;9633;50.980;13.850;2024-01-07T06:16:50;-1.00;97.50
19000;DHT22;9633;50.980;13.850;2024-01-07T06:18:25;-1.10;99.90
19000;DHT22;9633;50.980;13.850;2024-01-07T06:19:58;-1.20;99.90
19000;DHT22;9633;50.980;13.850;2024-01-07T06:21:32;-1.20;99.90
19000;DHT22;9633;50.980;13.850;2024-01-07T06:23:04;-1.20;99.90
19000;DHT22;9633;50.980;13.850;2024-01-07T06:24:38;-1.20;99.90
19000;DHT22;9633;50.980;13.850;2024-01-07T06:26:11;-1.20;99.90
19000;DHT22;9633;50.980;13.850;2024-01-07T06:27:44;-1.20;99.90
19000;DHT22;9633;50.980;13.850;2024-01-07T06:29:17;-1.20;99.90
19000;DHT22;9633;50.980;13.850;2024-01-07T06:30:51;-1.10;98.40
19000;DHT22;9633;50.980;13.850;2024-01-07T06:32:24;-1.30;99.90
19000;DHT22;9633;50.980;13.850;2024-01-07T06:34:00;-1.40;99.90
19000;DHT22;9633;50.980;13.850;2024-01-07T06:35:33;-1.30;99.90
19000;DHT22;9633;50.980;13.850;2024-01-07T06:37:06;-1.30;99.90
19000;DHT22;9633;50.980;13.850;2024-01-07T06:38:42;-1.30;99.90
19000;DHT22;9633;50.980;13.850;2024-01-07T06:40:16;-1.30;99.90
19000;DHT22;9633;50.980;13.850;2024-01-07T06:41:49;-1.20;99.90
19000;DHT22;9633;50.980;13.850;2024-01-07T06:43:21;-1.20;99.90
19000;DHT22;9633;50.980;13.850;2024-01-07T06:44:55;-1.20;98.30
19000;DHT22;9633;50.980;13.850;2024-01-07T06:46:28;-1.10;93.90
19000;DHT22;9633;50.980;13.850;2024-01-07T06:48:02;-1.20;87.90
19000;DHT22;9633;50.980;13.850;2024-01-07T06:49:37;-1.20;94.70
19000;DHT22;9633;50.980;13.850;2024-01-07T06:51:11;-1.20;97.10
19000;DHT22;9633;50.980;13.850;2024-01-07T06:52:44;-1.20;94.20
19000;DHT22;9633;50.980;13.850;2024-01-07T06:54:18;-1.20;85.90
19000;DHT22;9633;50.980;13.850;2024-01-07T06:55:50;-1.20;90.70
19000;DHT22;9633;50.980;13.850;2024-01-07T06:57:28;-1.20;90.10
19000;DHT22;9633;50.980;13.850;2024-01-07T06:59:00;-1.30;89.40
19000;DHT22;9633;50.980;13.850;2024-01-07T07:00:34;-1.40;77.30
19000;DHT22;9633;50.980;13.850;2024-01-07T07:02:06;-1.40;85.80
19000;DHT22;9633;50.980;13.850;2024-01-07T07:03:40;-1.40;93.40
19000;DHT22;9633;50.980;13.850;2024-01-07T07:05:15;-1.40;89.90
19000;DHT22;9633;50.980;13.850;2024-01-07T07:07:18;-1.40;87.10
19000;DHT22;9633;50.980;13.850;2024-01-07T07:08:52;-1.30;83.90
19000;DHT22;9633;50.980;13.850;2024-01-07T07:10:25;-1.30;76.20
19000;DHT22;9633;50.980;13.850;2024-01-07T07:11:57;-1.20;83.00
19000;DHT22;9633;50.980;13.850;2024-01-07T07:13:31;-1.30;80.50
19000;DHT22;9633;50.980;13.850;2024-01-07T07:15:04;-1.30;81.10
19000;DHT22;9633;50.980;13.850;2024-01-07T07:16:37;-1.20;74.10
19000;DHT22;9633;50.980;13.850;2024-01-07T07:18:09;-1.20;75.10
19000;DHT22;9633;50.980;13.850;2024-01-07T07:19:43;-1.20;75.20
19000;DHT22;9633;50.980;13.850;2024-01-07T07:21:21;-1.20;69.00
19000;DHT22;9633;50.980;13.850;2024-01-07T07:22:55;-1.30;57.40
19000;DHT22;9633;50.980;13.850;2024-01-07T07:24:27;-1.40;63.90
19000;DHT22;9633;50.980;13.850;2024-01-07T07:26:01;-1.40;57.90
19000;DHT22;9633;50.980;13.850;2024-01-07T07:27:34;-1.60;55.60
19000;DHT22;9633;50.980;13.850;2024-01-07T07:29:08;-1.60;51.90
19000;DHT22;9633;50.980;13.850;2024-01-07T07:30:41;-1.60;63.40
19000;DHT22;9633;50.980;13.850;2024-01-07T07:32:15;-1.70;53.50
19000;DHT22;9633;50.980;13.850;2024-01-07T07:33:47;-1.70;60.10
19000;DHT22;9633;50.980;13.850;2024-01-07T07:35:22;-1.70;62.50
19000;DHT22;9633;50.980;13.850;2024-01-07T07:36:55;-1.70;64.90
19000;DHT22;9633;50.980;13.850;2024-01-07T07:38:29;-1.70;68.20
19000;DHT22;9633;50.980;13.850;2024-01-07T07:40:02;-1.70;70.20
19000;DHT22;9633;50.980;13.850;2024-01-07T07:41:36;-1.70;60.00
19000;DHT22;9633;50.980;13.850;2024-01-07T07:43:08;-1.70;59.90
19000;DHT22;9633;50.980;13.850;2024-01-07T07:44:42;-1.60;66.60
19000;DHT22;9633;50.980;13.850;2024-01-07T07:46:14;-1.60;66.90
19000;DHT22;9633;50.980;13.850;2024-01-07T07:47:48;-1.60;60.50
19000;DHT22;9633;50.980;13.850;2024-01-07T07:49:21;-1.60;55.50
19000;DHT22;9633;50.980;13.850;2024-01-07T07:50:57;-1.60;65.30
19000;DHT22;9633;50.980;13.850;2024-01-07T07:52:32;-1.60;56.90
19000;DHT22;9633;50.980;13.850;2024-01-07T07:54:05;-1.50;61.80
19000;DHT22;9633;50.980;13.850;2024-01-07T07:55:38;-1.40;52.40
19000;DHT22;9633;50.980;13.850;2024-01-07T07:57:10;-1.40;41.20
19000;DHT22;9633;50.980;13.850;2024-01-07T07:58:44;-1.40;34.70
19000;DHT22;9633;50.980;13.850;2024-01-07T08:00:16;-1.40;36.20
19000;DHT22;9633;50.980;13.850;2024-01-07T08:01:50;-1.40;39.20
19000;DHT22;9633;50.980;13.850;2024-01-07T08:03:23;-1.30;43.10
19000;DHT22;9633;50.980;13.850;2024-01-07T08:04:58;-1.30;46.60
19000;DHT22;9633;50.980;13.850;2024-01-07T08:06:30;-1.40;36.40
19000;DHT22;9633;50.980;13.850;2024-01-07T08:08:06;-1.40;38.20
19000;DHT22;9633;50.980;13.850;2024-01-07T08:09:38;-1.50;33.80
19000;DHT22;9633;50.980;13.850;2024-01-07T08:11:12;-1.50;40.30
19000;DHT22;9633;50.980;13.850;2024-01-07T08:12:45;-1.50;37.70
19000;DHT22;9633;50.980;13.850;2024-01-07T08:14:18;-1.50;42.40
19000;DHT22;9633;50.980;13.850;2024-01-07T08:15:51;-1.40;36.00
19000;DHT22;9633;50.980;13.850;2024-01-07T08:17:24;-1.40;32.40
19000;DHT22;9633;50.980;13.850;2024-01-07T08:19:00;-1.40;40.50
19000;DHT22;9633;50.980;13.850;2024-01-07T08:20:34;-1.30;43.80
19000;DHT22;9633;50.980;13.850;2024-01-07T08:22:06;-1.20;49.00
19000;DHT22;9633;50.980;13.850;2024-01-07T08:23:43;-1.10;38.00
19000;DHT22;9633;50.980;13.850;2024-01-07T08:25:15;-1.10;41.80
19000;DHT22;9633;50.980;13.850;2024-01-07T08:26:48;-1.10;25.40
19000;DHT22;9633;50.980;13.850;2024-01-07T08:28:21;-1.20;26.90
19000;DHT22;9633;50.980;13.850;2024-01-07T08:29:54;-1.20;32.60
19000;DHT22;9633;50.980;13.850;2024-01-07T08:31:27;-1.20;35.40
19000;DHT22;9633;50.980;13.850;2024-01-07T08:33:02;-1.30;23.20
19000;DHT22;9633;50.980;13.850;2024-01-07T08:34:35;-1.40;26.80
19000;DHT22;9633;50.980;13.850;2024-01-07T08:36:09;-1.50;28.40
19000;DHT22;9633;50.980;13.850;2024-01-07T08:37:42;-1.60;30.10
19000;DHT22;9633;50.980;13.850;2024-01-07T08:39:24;-1.50;32.90
19000;DHT22;9633;50.980;13.850;2024-01-07T08:41:00;-1.60;26.40
19000;DHT22;9633;50.980;13.850;2024-01-07T08:42:33;-1.60;37.30
19000;DHT22;9633;50.980;13.850;2024-01-07T08:44:06;-1.70;25.90
19000;DHT22;9633;50.980;13.850;2024-01-07T08:45:40;-1.60;24.60
19000;DHT22;9633;50.980;13.850;2024-01-07T08:47:13;-1.70;33.10
19000;DHT22;9633;50.980;13.850;2024-01-07T08:48:47;-1.80;30.70
19000;DHT22;9633;50.980;13.850;2024-01-07T08:50:20;-1.80;31.20
19000;DHT22;9633;50.980;13.850;2024-01-07T08:51:54;-1.70;26.40
19000;DHT22;9633;50.980;13.850;2024-01-07T08:53:28;-1.70;26.10
19000;DHT22;9633;50.980;13.850;2024-01-07T08:55:03;-1.70;26.30
19000;DHT22;9633;50.980;13.850;2024-01-07T08:56:38;-1.80;17.60
19000;DHT22;9633;50.980;13.850;2024-01-07T08:58:12;-1.70;25.00
19000;DHT22;9633;50.980;13.850;2024-01-07T08:59:46;-1.80;22.90
19000;DHT22;9633;50.980;13.850;2024-01-07T09:01:20;-1.80;26.50
19000;DHT22;9633;50.980;13.850;2024-01-07T09:02:52;-1.80;25.80
19000;DHT22;9633;50.980;13.850;2024-01-07T09:04:26;-1.70;28.80
19000;DHT22;9633;50.980;13.850;2024-01-07T09:05:58;-1.70;29.20
19000;DHT22;9633;50.980;13.850;2024-01-07T09:07:32;-1.80;21.90
19000;DHT22;9633;50.980;13.850;2024-01-07T09:09:05;-1.70;15.30
19000;DHT22;9633;50.980;13.850;2024-01-07T09:10:39;-1.60;23.20
19000;DHT22;9633;50.980;13.850;2024-01-07T09:12:13;-1.60;21.70
19000;DHT22;9633;50.980;13.850;2024-01-07T09:13:47;-1.50;19.40
19000;DHT22;9633;50.980;13.850;2024-01-07T09:15:21;-1.40;20.00
19000;DHT22;9633;50.980;13.850;2024-01-07T09:16:54;-1.50;5.60
19000;DHT22;9633;50.980;13.850;2024-01-07T09:18:26;-1.40;10.30
19000;DHT22;9633;50.980;13.850;2024-01-07T09:20:00;-1.30;6.30
19000;DHT22;9633;50.980;13.850;2024-01-07T09:21:35;-1.30;13.70
19000;DHT22;9633;50.980;13.850;2024-01-07T09:23:11;-1.40;15.30
19000;DHT22;9633;50.980;13.850;2024-01-07T09:24:46;-1.10;8.10
19000;DHT22;9633;50.980;13.850;2024-01-07T09:26:22;-1.20;7.70
19000;DHT22;9633;50.980;13.850;2024-01-07T09:27:55;-1.20;7.30
19000;DHT22;9633;50.980;13.850;2024-01-07T09:29:28;-1.10;1.00
19000;DHT22;9633;50.980;13.850;2024-01-07T09:31:02;-1.20;2.80
19000;DHT22;9633;50.980;13.850;2024-01-07T09:32:35;-1.20;1.00
19000;DHT22;9633;50.980;13.850;2024-01-07T09:34:09;-1.20;1.00
19000;DHT22;9633;50.980;13.850;2024-01-07T09:35:42;-1.20;1.00
19000;DHT22;9633;50.980;13.850;2024-01-07T09:37:16;-1.10;1.00
19000;DHT22;9633;50.980;13.850;2024-01-07T09:38:49;-1.30;2.10
19000;DHT22;9633;50.980;13.850;2024-01-07T09:40:22;-1.30;7.20
19000;DHT22;9633;50.980;13.850;2024-01-07T09:41:56;-1.10;5.90
19000;DHT22;9633;50.980;13.850;2024-01-07T09:43:32;-1.10;2.50
19000;DHT22;9633;50.980;13.850;2024-01-07T09:45:11;-1.00;1.00
19000;DHT22;9633;50.980;13.850;2024-01-07T09:46:46;-1.10;1.00
19000;DHT22;9633;50.980;13.850;2024-01-07T09:48:23;-1.00;1.00
19000;DHT22;9633;50.980;13.850;2024-01-07T09:49:57;-1.00;1.00
19000;DHT22;9633;50.980;13.850;2024-01-07T09:51:32;-1.00;1.00
19000;DHT22;9633;50.980;13.850;2024-01-07T09:53:14;-1.00;1.00